sensor_id;sensor_type;location;lat;lon;timestamp;P1;durP1;ratioP1;P2;durP2;ratioP2
7661;SDS011;30314;48.184;11.510;2023-08-06T00:00:52;6.20;;;4.43;;
7661;SDS011;30314;48.184;11.510;2023-08-06T00:03:18;7.83;;;4.73;;
7661;SDS011;30314;48.184;11.510;2023-08-06T00:05:45;6.40;;;4.30;;
7661;SDS011;30314;48.184;11.510;2023-08-06T00:08:11;7.10;;;4.90;;
7661;SDS011;30314;48.184;11.510;2023-08-06T00:10:39;7.33;;;3.93;;
7661;SDS011;30314;48.184;11.510;2023-08-06T00:13:07;6.83;;;4.50;;
7661;SDS011;30314;48.184;11.510;2023-08-06T00:15:34;6.60;;;4.00;;
7661;SDS011;30314;48.184;11.510;2023-08-06T00:18:00;5.40;;;4.20;;
7661;SDS011;30314;48.184;11.510;2023-08-06T00:20:27;4.73;;;4.10;;
7661;SDS011;30314;48.184;11.510;2023-08-06T00:22:53;5.80;;;4.30;;
7661;SDS011;30314;48.184;11.510;2023-08-06T00:25:20;9.50;;;4.97;;
7661;SDS011;30314;48.184;11.510;2023-08-06T00:27:46;9.00;;;4.60;;
7661;SDS011;30314;48.184;11.510;2023-08-06T00:30:14;6.30;;;4.37;;
7661;SDS011;30314;48.184;11.510;2023-08-06T00:32:40;3.80;;;3.13;;
7661;SDS011;30314;48.184;11.510;2023-08-06T00:35:07;4.40;;;2.77;;
7661;SDS011;30314;48.184;11.510;2023-08-06T00:37:34;4.80;;;2.93;;
7661;SDS011;30314;48.184;11.510;2023-08-06T00:40:00;2.80;;;2.40;;
7661;SDS011;30314;48.184;11.510;2023-08-06T00:42:27;6.53;;;3.20;;
7661;SDS011;30314;48.184;11.510;2023-08-06T00:44:53;3.17;;;2.77;;
7661;SDS011;30314;48.184;11.510;2023-08-06T00:47:20;4.27;;;2.80;;
7661;SDS011;30314;48.184;11.510;2023-08-06T00:49:46;4.07;;;3.00;;
7661;SDS011;30314;48.184;11.510;2023-08-06T00:52:14;6.73;;;2.83;;
7661;SDS011;30314;48.184;11.510;2023-08-06T00:54:40;6.70;;;4.50;;
7661;SDS011;30314;48.184;11.510;2023-08-06T00:57:08;6.17;;;3.33;;
7661;SDS011;30314;48.184;11.510;2023-08-06T00:59:35;6.40;;;3.53;;
7661;SDS011;30314;48.184;11.510;2023-08-06T01:02:03;3.77;;;2.93;;
7661;SDS011;30314;48.184;11.510;2023-08-06T01:04:29;4.70;;;3.10;;
7661;SDS011;30314;48.184;11.510;2023-08-06T01:07:02;4.00;;;2.97;;
7661;SDS011;30314;48.184;11.510;2023-08-06T01:12:41;4.73;;;3.40;;
7661;SDS011;30314;48.184;11.510;2023-08-06T01:15:19;5.90;;;3.40;;
7661;SDS011;30314;48.184;11.510;2023-08-06T01:17:50;5.77;;;3.23;;
7661;SDS011;30314;48.184;11.510;2023-08-06T01:20:18;5.03;;;3.17;;
7661;SDS011;30314;48.184;11.510;2023-08-06T01:22:45;5.80;;;3.17;;
7661;SDS011;30314;48.184;11.510;2023-08-06T01:25:12;4.30;;;3.30;;
7661;SDS011;30314;48.184;11.510;2023-08-06T01:27:49;4.80;;;3.73;;
7661;SDS011;30314;48.184;11.510;2023-08-06T01:30:23;4.73;;;3.20;;
7661;SDS011;30314;48.184;11.510;2023-08-06T01:32:55;4.77;;;3.33;;
7661;SDS011;30314;48.184;11.510;2023-08-06T01:35:26;6.87;;;3.30;;
7661;SDS011;30314;48.184;11.510;2023-08-06T01:37:54;4.13;;;3.00;;
7661;SDS011;30314;48.184;11.510;2023-08-06T01:40:22;5.17;;;3.50;;
7661;SDS011;30314;48.184;11.510;2023-08-06T01:42:49;5.50;;;3.90;;
7661;SDS011;30314;48.184;11.510;2023-08-06T01:45:15;4.17;;;3.57;;
7661;SDS011;30314;48.184;11.510;2023-08-06T01:47:42;5.87;;;4.13;;
7661;SDS011;30314;48.184;11.510;2023-08-06T01:50:09;4.97;;;3.80;;
7661;SDS011;30314;48.184;11.510;2023-08-06T01:52:35;7.13;;;4.17;;
7661;SDS011;30314;48.184;11.510;2023-08-06T01:55:02;4.97;;;3.50;;
7661;SDS011;30314;48.184;11.510;2023-08-06T01:57:28;7.13;;;4.27;;
7661;SDS011;30314;48.184;11.510;2023-08-06T01:59:55;5.87;;;3.93;;
7661;SDS011;30314;48.184;11.510;2023-08-06T02:02:22;8.77;;;4.07;;
7661;SDS011;30314;48.184;11.510;2023-08-06T02:04:49;6.27;;;4.23;;
7661;SDS011;30314;48.184;11.510;2023-08-06T02:07:15;5.90;;;4.10;;
7661;SDS011;30314;48.184;11.510;2023-08-06T02:09:42;5.10;;;3.80;;
7661;SDS011;30314;48.184;11.510;2023-08-06T02:12:09;5.20;;;3.97;;
7661;SDS011;30314;48.184;11.510;2023-08-06T02:14:35;7.90;;;4.20;;
7661;SDS011;30314;48.184;11.510;2023-08-06T02:17:02;6.70;;;3.50;;
7661;SDS011;30314;48.184;11.510;2023-08-06T02:19:28;10.70;;;4.23;;
7661;SDS011;30314;48.184;11.510;2023-08-06T02:21:55;7.13;;;3.73;;
7661;SDS011;30314;48.184;11.510;2023-08-06T02:24:21;6.30;;;3.60;;
7661;SDS011;30314;48.184;11.510;2023-08-06T02:26:48;4.47;;;3.10;;
7661;SDS011;30314;48.184;11.510;2023-08-06T02:29:17;5.13;;;3.30;;
7661;SDS011;30314;48.184;11.510;2023-08-06T02:31:44;4.97;;;2.97;;
7661;SDS011;30314;48.184;11.510;2023-08-06T02:34:11;3.50;;;3.07;;
7661;SDS011;30314;48.184;11.510;2023-08-06T02:36:37;4.50;;;3.63;;
7661;SDS011;30314;48.184;11.510;2023-08-06T02:39:05;5.90;;;3.20;;
7661;SDS011;30314;48.184;11.510;2023-08-06T02:41:32;5.70;;;3.00;;
7661;SDS011;30314;48.184;11.510;2023-08-06T02:43:58;3.23;;;2.60;;
7661;SDS011;30314;48.184;11.510;2023-08-06T02:46:26;4.37;;;3.33;;
7661;SDS011;30314;48.184;11.510;2023-08-06T02:48:52;3.53;;;2.50;;
7661;SDS011;30314;48.184;11.510;2023-08-06T02:51:19;5.13;;;3.00;;
7661;SDS011;30314;48.184;11.510;2023-08-06T02:53:45;4.07;;;2.50;;
7661;SDS011;30314;48.184;11.510;2023-08-06T02:56:15;3.70;;;2.90;;
7661;SDS011;30314;48.184;11.510;2023-08-06T02:58:53;3.70;;;2.90;;
7661;SDS011;30314;48.184;11.510;2023-08-06T03:01:30;3.10;;;2.73;;
7661;SDS011;30314;48.184;11.510;2023-08-06T03:04:04;6.03;;;3.00;;
7661;SDS011;30314;48.184;11.510;2023-08-06T03:06:35;3.90;;;2.73;;
7661;SDS011;30314;48.184;11.510;2023-08-06T03:09:03;4.00;;;2.40;;
7661;SDS011;30314;48.184;11.510;2023-08-06T03:11:29;3.00;;;2.30;;
7661;SDS011;30314;48.184;11.510;2023-08-06T03:14:02;4.00;;;2.57;;
7661;SDS011;30314;48.184;11.510;2023-08-06T03:16:30;14.33;;;2.50;;
7661;SDS011;30314;48.184;11.510;2023-08-06T03:18:57;8.60;;;3.23;;
7661;SDS011;30314;48.184;11.510;2023-08-06T03:21:24;2.87;;;2.40;;
7661;SDS011;30314;48.184;11.510;2023-08-06T03:23:51;4.33;;;2.67;;
7661;SDS011;30314;48.184;11.510;2023-08-06T03:26:21;3.10;;;2.80;;
7661;SDS011;30314;48.184;11.510;2023-08-06T03:28:48;4.30;;;2.63;;
7661;SDS011;30314;48.184;11.510;2023-08-06T03:31:15;4.00;;;2.60;;
7661;SDS011;30314;48.184;11.510;2023-08-06T03:33:44;3.83;;;2.70;;
7661;SDS011;30314;48.184;11.510;2023-08-06T03:36:14;2.90;;;2.33;;
7661;SDS011;30314;48.184;11.510;2023-08-06T03:38:42;2.70;;;1.87;;
7661;SDS011;30314;48.184;11.510;2023-08-06T03:41:10;3.40;;;2.60;;
7661;SDS011;30314;48.184;11.510;2023-08-06T03:43:38;3.30;;;2.67;;
7661;SDS011;30314;48.184;11.510;2023-08-06T03:46:08;4.60;;;2.17;;
7661;SDS011;30314;48.184;11.510;2023-08-06T03:48:36;4.50;;;2.43;;
7661;SDS011;30314;48.184;11.510;2023-08-06T03:51:03;2.70;;;2.10;;
7661;SDS011;30314;48.184;11.510;2023-08-06T03:53:29;4.37;;;2.30;;
7661;SDS011;30314;48.184;11.510;2023-08-06T03:55:57;4.53;;;2.33;;
7661;SDS011;30314;48.184;11.510;2023-08-06T03:58:26;14.13;;;2.50;;
7661;SDS011;30314;48.184;11.510;2023-08-06T04:00:59;5.97;;;2.63;;
7661;SDS011;30314;48.184;11.510;2023-08-06T04:03:31;2.40;;;2.20;;
7661;SDS011;30314;48.184;11.510;2023-08-06T04:05:59;5.17;;;2.43;;
7661;SDS011;30314;48.184;11.510;2023-08-06T04:08:27;3.50;;;2.63;;
7661;SDS011;30314;48.184;11.510;2023-08-06T04:10:53;5.00;;;2.07;;
7661;SDS011;30314;48.184;11.510;2023-08-06T04:13:20;3.00;;;2.20;;
7661;SDS011;30314;48.184;11.510;2023-08-06T04:15:47;4.13;;;2.20;;
7661;SDS011;30314;48.184;11.510;2023-08-06T04:18:14;3.20;;;2.60;;
7661;SDS011;30314;48.184;11.510;2023-08-06T04:20:44;3.63;;;2.37;;
7661;SDS011;30314;48.184;11.510;2023-08-06T04:23:12;4.40;;;2.77;;
7661;SDS011;30314;48.184;11.510;2023-08-06T04:25:39;5.07;;;2.10;;
7661;SDS011;30314;48.184;11.510;2023-08-06T04:28:06;3.20;;;2.40;;
7661;SDS011;30314;48.184;11.510;2023-08-06T04:30:33;2.50;;;1.87;;
7661;SDS011;30314;48.184;11.510;2023-08-06T04:33:01;2.33;;;1.70;;
7661;SDS011;30314;48.184;11.510;2023-08-06T04:35:28;2.73;;;2.37;;
7661;SDS011;30314;48.184;11.510;2023-08-06T04:37:55;4.57;;;1.80;;
7661;SDS011;30314;48.184;11.510;2023-08-06T04:40:22;2.40;;;1.80;;
7661;SDS011;30314;48.184;11.510;2023-08-06T04:42:49;2.90;;;2.00;;
7661;SDS011;30314;48.184;11.510;2023-08-06T04:45:17;2.87;;;2.40;;
7661;SDS011;30314;48.184;11.510;2023-08-06T04:47:43;2.50;;;1.93;;
7661;SDS011;30314;48.184;11.510;2023-08-06T04:50:10;4.33;;;2.10;;
7661;SDS011;30314;48.184;11.510;2023-08-06T04:52:37;3.50;;;2.00;;
7661;SDS011;30314;48.184;11.510;2023-08-06T04:55:04;2.37;;;1.60;;
7661;SDS011;30314;48.184;11.510;2023-08-06T04:57:32;6.47;;;2.13;;
7661;SDS011;30314;48.184;11.510;2023-08-06T04:59:59;3.93;;;2.03;;
7661;SDS011;30314;48.184;11.510;2023-08-06T05:02:25;2.50;;;1.70;;
7661;SDS011;30314;48.184;11.510;2023-08-06T05:04:52;3.30;;;2.70;;
7661;SDS011;30314;48.184;11.510;2023-08-06T05:07:18;2.40;;;1.97;;
7661;SDS011;30314;48.184;11.510;2023-08-06T05:09:45;5.73;;;2.93;;
7661;SDS011;30314;48.184;11.510;2023-08-06T05:12:11;3.20;;;2.10;;
7661;SDS011;30314;48.184;11.510;2023-08-06T05:14:38;4.23;;;2.63;;
7661;SDS011;30314;48.184;11.510;2023-08-06T05:17:05;3.10;;;2.33;;
7661;SDS011;30314;48.184;11.510;2023-08-06T05:19:31;3.03;;;2.27;;
7661;SDS011;30314;48.184;11.510;2023-08-06T05:21:58;12.90;;;2.20;;
7661;SDS011;30314;48.184;11.510;2023-08-06T05:24:24;2.37;;;1.63;;
7661;SDS011;30314;48.184;11.510;2023-08-06T05:26:51;3.20;;;2.27;;
7661;SDS011;30314;48.184;11.510;2023-08-06T05:29:18;2.80;;;2.10;;
7661;SDS011;30314;48.184;11.510;2023-08-06T05:31:44;3.30;;;2.10;;
7661;SDS011;30314;48.184;11.510;2023-08-06T05:34:11;3.13;;;2.30;;
7661;SDS011;30314;48.184;11.510;2023-08-06T05:36:37;3.63;;;2.10;;
7661;SDS011;30314;48.184;11.510;2023-08-06T05:39:04;2.17;;;1.77;;
7661;SDS011;30314;48.184;11.510;2023-08-06T05:41:31;3.40;;;2.33;;
7661;SDS011;30314;48.184;11.510;2023-08-06T05:43:57;2.50;;;1.93;;
7661;SDS011;30314;48.184;11.510;2023-08-06T05:46:25;3.97;;;1.57;;
7661;SDS011;30314;48.184;11.510;2023-08-06T05:48:51;3.13;;;2.13;;
7661;SDS011;30314;48.184;11.510;2023-08-06T05:51:18;9.33;;;2.33;;
7661;SDS011;30314;48.184;11.510;2023-08-06T05:53:45;3.47;;;2.20;;
7661;SDS011;30314;48.184;11.510;2023-08-06T05:56:13;5.00;;;2.43;;
7661;SDS011;30314;48.184;11.510;2023-08-06T05:58:40;4.77;;;2.57;;
7661;SDS011;30314;48.184;11.510;2023-08-06T06:01:07;2.60;;;2.37;;
7661;SDS011;30314;48.184;11.510;2023-08-06T06:03:33;4.30;;;2.53;;
7661;SDS011;30314;48.184;11.510;2023-08-06T06:06:03;2.13;;;1.73;;
7661;SDS011;30314;48.184;11.510;2023-08-06T06:08:30;8.73;;;2.47;;
7661;SDS011;30314;48.184;11.510;2023-08-06T06:10:56;3.70;;;2.10;;
7661;SDS011;30314;48.184;11.510;2023-08-06T06:13:24;6.00;;;2.40;;
7661;SDS011;30314;48.184;11.510;2023-08-06T06:15:53;5.67;;;2.30;;
7661;SDS011;30314;48.184;11.510;2023-08-06T06:18:22;3.00;;;2.07;;
7661;SDS011;30314;48.184;11.510;2023-08-06T06:20:48;3.90;;;2.47;;
7661;SDS011;30314;48.184;11.510;2023-08-06T06:23:15;3.80;;;1.73;;
7661;SDS011;30314;48.184;11.510;2023-08-06T06:25:42;3.90;;;2.23;;
7661;SDS011;30314;48.184;11.510;2023-08-06T06:28:10;2.63;;;1.70;;
7661;SDS011;30314;48.184;11.510;2023-08-06T06:30:36;1.87;;;1.50;;
7661;SDS011;30314;48.184;11.510;2023-08-06T06:33:03;2.70;;;1.67;;
7661;SDS011;30314;48.184;11.510;2023-08-06T06:35:29;6.73;;;2.17;;
7661;SDS011;30314;48.184;11.510;2023-08-06T06:37:57;5.23;;;2.07;;
7661;SDS011;30314;48.184;11.510;2023-08-06T06:40:23;4.10;;;2.20;;
7661;SDS011;30314;48.184;11.510;2023-08-06T06:42:50;4.10;;;1.97;;
7661;SDS011;30314;48.184;11.510;2023-08-06T06:45:16;2.43;;;1.43;;
7661;SDS011;30314;48.184;11.510;2023-08-06T06:47:43;2.07;;;1.23;;
7661;SDS011;30314;48.184;11.510;2023-08-06T06:50:10;2.80;;;1.70;;
7661;SDS011;30314;48.184;11.510;2023-08-06T06:52:36;3.60;;;1.47;;
7661;SDS011;30314;48.184;11.510;2023-08-06T06:55:03;2.43;;;1.40;;
7661;SDS011;30314;48.184;11.510;2023-08-06T06:57:30;3.73;;;1.53;;
7661;SDS011;30314;48.184;11.510;2023-08-06T06:59:57;2.30;;;1.40;;
7661;SDS011;30314;48.184;11.510;2023-08-06T07:02:24;2.00;;;1.30;;
7661;SDS011;30314;48.184;11.510;2023-08-06T07:04:50;2.93;;;1.30;;
7661;SDS011;30314;48.184;11.510;2023-08-06T07:07:17;4.60;;;1.37;;
7661;SDS011;30314;48.184;11.510;2023-08-06T07:09:44;5.17;;;1.50;;
7661;SDS011;30314;48.184;11.510;2023-08-06T07:12:11;2.07;;;1.23;;
7661;SDS011;30314;48.184;11.510;2023-08-06T07:14:37;1.10;;;0.70;;
7661;SDS011;30314;48.184;11.510;2023-08-06T07:17:05;2.07;;;0.90;;
7661;SDS011;30314;48.184;11.510;2023-08-06T07:19:31;1.20;;;0.60;;
7661;SDS011;30314;48.184;11.510;2023-08-06T07:21:58;1.23;;;0.50;;
7661;SDS011;30314;48.184;11.510;2023-08-06T07:24:25;2.40;;;1.60;;
7661;SDS011;30314;48.184;11.510;2023-08-06T07:26:51;1.90;;;0.70;;
7661;SDS011;30314;48.184;11.510;2023-08-06T07:29:19;6.83;;;1.03;;
7661;SDS011;30314;48.184;11.510;2023-08-06T07:31:47;2.23;;;1.00;;
7661;SDS011;30314;48.184;11.510;2023-08-06T07:34:15;2.97;;;1.23;;
7661;SDS011;30314;48.184;11.510;2023-08-06T07:36:45;1.60;;;0.70;;
7661;SDS011;30314;48.184;11.510;2023-08-06T07:39:12;5.43;;;0.90;;
7661;SDS011;30314;48.184;11.510;2023-08-06T07:41:39;2.00;;;1.40;;
7661;SDS011;30314;48.184;11.510;2023-08-06T07:44:07;1.80;;;1.00;;
7661;SDS011;30314;48.184;11.510;2023-08-06T07:46:34;2.30;;;0.90;;
7661;SDS011;30314;48.184;11.510;2023-08-06T07:49:00;1.37;;;0.70;;
7661;SDS011;30314;48.184;11.510;2023-08-06T07:51:27;4.30;;;0.90;;
7661;SDS011;30314;48.184;11.510;2023-08-06T07:53:53;4.20;;;0.73;;
7661;SDS011;30314;48.184;11.510;2023-08-06T07:56:20;1.33;;;0.63;;
7661;SDS011;30314;48.184;11.510;2023-08-06T07:58:47;2.77;;;0.80;;
7661;SDS011;30314;48.184;11.510;2023-08-06T08:01:14;2.17;;;1.13;;
7661;SDS011;30314;48.184;11.510;2023-08-06T08:03:41;1.77;;;0.70;;
7661;SDS011;30314;48.184;11.510;2023-08-06T08:06:07;5.47;;;1.20;;
7661;SDS011;30314;48.184;11.510;2023-08-06T08:08:34;2.77;;;0.97;;
7661;SDS011;30314;48.184;11.510;2023-08-06T08:11:05;1.70;;;0.90;;
7661;SDS011;30314;48.184;11.510;2023-08-06T08:13:32;4.10;;;0.83;;
7661;SDS011;30314;48.184;11.510;2023-08-06T08:15:59;8.70;;;1.33;;
7661;SDS011;30314;48.184;11.510;2023-08-06T08:18:26;1.67;;;0.90;;
7661;SDS011;30314;48.184;11.510;2023-08-06T08:20:52;1.10;;;0.70;;
7661;SDS011;30314;48.184;11.510;2023-08-06T08:23:19;0.97;;;0.50;;
7661;SDS011;30314;48.184;11.510;2023-08-06T08:25:45;1.20;;;0.73;;
7661;SDS011;30314;48.184;11.510;2023-08-06T08:28:12;1.83;;;0.63;;
7661;SDS011;30314;48.184;11.510;2023-08-06T08:30:40;1.40;;;0.60;;
7661;SDS011;30314;48.184;11.510;2023-08-06T08:33:07;0.90;;;0.40;;
7661;SDS011;30314;48.184;11.510;2023-08-06T08:35:34;1.00;;;0.60;;
7661;SDS011;30314;48.184;11.510;2023-08-06T08:38:03;2.07;;;0.77;;
7661;SDS011;30314;48.184;11.510;2023-08-06T08:40:31;1.00;;;0.37;;
7661;SDS011;30314;48.184;11.510;2023-08-06T08:42:59;1.53;;;0.47;;
7661;SDS011;30314;48.184;11.510;2023-08-06T08:45:26;3.93;;;0.70;;
7661;SDS011;30314;48.184;11.510;2023-08-06T08:47:55;3.53;;;0.80;;
7661;SDS011;30314;48.184;11.510;2023-08-06T08:50:22;1.53;;;0.60;;
7661;SDS011;30314;48.184;11.510;2023-08-06T08:52:49;5.10;;;0.70;;
7661;SDS011;30314;48.184;11.510;2023-08-06T08:55:17;1.33;;;0.50;;
7661;SDS011;30314;48.184;11.510;2023-08-06T08:57:44;0.90;;;0.43;;
7661;SDS011;30314;48.184;11.510;2023-08-06T09:00:11;2.23;;;0.50;;
7661;SDS011;30314;48.184;11.510;2023-08-06T09:02:37;2.40;;;0.30;;
7661;SDS011;30314;48.184;11.510;2023-08-06T09:05:05;2.30;;;0.30;;
7661;SDS011;30314;48.184;11.510;2023-08-06T09:07:38;0.80;;;0.30;;
7661;SDS011;30314;48.184;11.510;2023-08-06T09:10:10;2.33;;;0.40;;
7661;SDS011;30314;48.184;11.510;2023-08-06T09:12:38;1.00;;;0.30;;
7661;SDS011;30314;48.184;11.510;2023-08-06T09:15:05;1.37;;;0.50;;
7661;SDS011;30314;48.184;11.510;2023-08-06T09:17:32;2.27;;;0.30;;
7661;SDS011;30314;48.184;11.510;2023-08-06T09:19:58;1.73;;;0.30;;
7661;SDS011;30314;48.184;11.510;2023-08-06T09:22:25;1.10;;;0.20;;
7661;SDS011;30314;48.184;11.510;2023-08-06T09:25:00;1.33;;;0.30;;
7661;SDS011;30314;48.184;11.510;2023-08-06T09:27:27;1.33;;;0.30;;
7661;SDS011;30314;48.184;11.510;2023-08-06T09:29:53;0.90;;;0.20;;
7661;SDS011;30314;48.184;11.510;2023-08-06T09:32:20;2.00;;;0.37;;
7661;SDS011;30314;48.184;11.510;2023-08-06T09:34:47;0.70;;;0.20;;
7661;SDS011;30314;48.184;11.510;2023-08-06T09:37:22;0.80;;;0.50;;
7661;SDS011;30314;48.184;11.510;2023-08-06T09:39:49;4.40;;;0.30;;
7661;SDS011;30314;48.184;11.510;2023-08-06T09:42:16;1.00;;;0.20;;
7661;SDS011;30314;48.184;11.510;2023-08-06T09:44:43;0.83;;;0.20;;
7661;SDS011;30314;48.184;11.510;2023-08-06T09:47:09;1.00;;;0.40;;
7661;SDS011;30314;48.184;11.510;2023-08-06T09:52:02;1.00;;;0.20;;
7661;SDS011;30314;48.184;11.510;2023-08-06T09:54:31;3.07;;;0.33;;
7661;SDS011;30314;48.184;11.510;2023-08-06T09:57:00;1.17;;;0.30;;
7661;SDS011;30314;48.184;11.510;2023-08-06T09:59:27;2.10;;;0.47;;
7661;SDS011;30314;48.184;11.510;2023-08-06T10:01:54;0.90;;;0.30;;
7661;SDS011;30314;48.184;11.510;2023-08-06T10:04:23;1.23;;;0.30;;
7661;SDS011;30314;48.184;11.510;2023-08-06T10:06:58;1.37;;;0.20;;
7661;SDS011;30314;48.184;11.510;2023-08-06T10:09:25;0.70;;;0.30;;
7661;SDS011;30314;48.184;11.510;2023-08-06T10:11:52;0.70;;;0.20;;
7661;SDS011;30314;48.184;11.510;2023-08-06T10:14:23;1.97;;;0.20;;
7661;SDS011;30314;48.184;11.510;2023-08-06T10:16:53;1.27;;;0.30;;
7661;SDS011;30314;48.184;11.510;2023-08-06T10:19:22;1.10;;;0.27;;
7661;SDS011;30314;48.184;11.510;2023-08-06T10:24:59;0.77;;;0.30;;
7661;SDS011;30314;48.184;11.510;2023-08-06T10:33:00;0.80;;;0.20;;
7661;SDS011;30314;48.184;11.510;2023-08-06T10:38:15;0.90;;;0.30;;
7661;SDS011;30314;48.184;11.510;2023-08-06T10:43:28;1.67;;;0.40;;
7661;SDS011;30314;48.184;11.510;2023-08-06T10:45:56;1.57;;;0.30;;
7661;SDS011;30314;48.184;11.510;2023-08-06T10:48:31;3.73;;;0.43;;
7661;SDS011;30314;48.184;11.510;2023-08-06T10:51:00;1.07;;;0.30;;
7661;SDS011;30314;48.184;11.510;2023-08-06T10:53:28;0.70;;;0.30;;
7661;SDS011;30314;48.184;11.510;2023-08-06T10:55:59;3.13;;;0.20;;
7661;SDS011;30314;48.184;11.510;2023-08-06T10:58:31;1.10;;;0.20;;
7661;SDS011;30314;48.184;11.510;2023-08-06T11:01:00;0.90;;;0.20;;
7661;SDS011;30314;48.184;11.510;2023-08-06T11:03:28;1.97;;;0.20;;
7661;SDS011;30314;48.184;11.510;2023-08-06T11:05:55;0.83;;;0.30;;
7661;SDS011;30314;48.184;11.510;2023-08-06T11:08:28;1.20;;;0.30;;
7661;SDS011;30314;48.184;11.510;2023-08-06T11:11:11;0.70;;;0.20;;
7661;SDS011;30314;48.184;11.510;2023-08-06T11:13:43;0.70;;;0.20;;
7661;SDS011;30314;48.184;11.510;2023-08-06T11:16:14;0.73;;;0.20;;
7661;SDS011;30314;48.184;11.510;2023-08-06T11:18:42;1.53;;;0.30;;
7661;SDS011;30314;48.184;11.510;2023-08-06T11:21:09;0.80;;;0.20;;
7661;SDS011;30314;48.184;11.510;2023-08-06T11:23:38;0.90;;;0.50;;
7661;SDS011;30314;48.184;11.510;2023-08-06T11:26:05;1.30;;;0.20;;
7661;SDS011;30314;48.184;11.510;2023-08-06T11:28:32;0.80;;;0.30;;
7661;SDS011;30314;48.184;11.510;2023-08-06T11:30:59;1.33;;;0.33;;
7661;SDS011;30314;48.184;11.510;2023-08-06T11:33:28;2.63;;;0.30;;
7661;SDS011;30314;48.184;11.510;2023-08-06T11:35:55;0.70;;;0.30;;
7661;SDS011;30314;48.184;11.510;2023-08-06T11:38:25;0.97;;;0.30;;
7661;SDS011;30314;48.184;11.510;2023-08-06T11:40:53;1.80;;;0.40;;
7661;SDS011;30314;48.184;11.510;2023-08-06T11:43:20;2.03;;;0.33;;
7661;SDS011;30314;48.184;11.510;2023-08-06T11:45:51;1.03;;;0.30;;
7661;SDS011;30314;48.184;11.510;2023-08-06T11:48:20;1.73;;;0.27;;
7661;SDS011;30314;48.184;11.510;2023-08-06T11:50:47;3.00;;;0.40;;
7661;SDS011;30314;48.184;11.510;2023-08-06T11:53:14;1.07;;;0.30;;
7661;SDS011;30314;48.184;11.510;2023-08-06T11:55:41;0.70;;;0.20;;
7661;SDS011;30314;48.184;11.510;2023-08-06T11:58:09;0.63;;;0.20;;
7661;SDS011;30314;48.184;11.510;2023-08-06T12:00:37;0.90;;;0.20;;
7661;SDS011;30314;48.184;11.510;2023-08-06T12:03:04;0.90;;;0.20;;
7661;SDS011;30314;48.184;11.510;2023-08-06T12:05:31;2.90;;;0.63;;
7661;SDS011;30314;48.184;11.510;2023-08-06T12:08:02;0.80;;;0.20;;
7661;SDS011;30314;48.184;11.510;2023-08-06T12:10:30;0.83;;;0.20;;
7661;SDS011;30314;48.184;11.510;2023-08-06T12:12:58;0.90;;;0.23;;
7661;SDS011;30314;48.184;11.510;2023-08-06T12:15:25;0.70;;;0.20;;
7661;SDS011;30314;48.184;11.510;2023-08-06T12:17:51;0.90;;;0.30;;
7661;SDS011;30314;48.184;11.510;2023-08-06T12:20:18;0.70;;;0.20;;
7661;SDS011;30314;48.184;11.510;2023-08-06T12:22:44;1.07;;;0.20;;
7661;SDS011;30314;48.184;11.510;2023-08-06T12:25:13;0.70;;;0.20;;
7661;SDS011;30314;48.184;11.510;2023-08-06T12:31:04;9.30;;;0.40;;
7661;SDS011;30314;48.184;11.510;2023-08-06T12:33:31;1.17;;;0.20;;
7661;SDS011;30314;48.184;11.510;2023-08-06T12:35:58;0.70;;;0.20;;
7661;SDS011;30314;48.184;11.510;2023-08-06T12:38:24;0.80;;;0.20;;
7661;SDS011;30314;48.184;11.510;2023-08-06T12:40:51;0.93;;;0.20;;
7661;SDS011;30314;48.184;11.510;2023-08-06T12:43:18;1.67;;;0.20;;
7661;SDS011;30314;48.184;11.510;2023-08-06T12:45:44;1.70;;;0.40;;
7661;SDS011;30314;48.184;11.510;2023-08-06T12:48:11;0.77;;;0.30;;
7661;SDS011;30314;48.184;11.510;2023-08-06T12:50:38;2.63;;;0.30;;
7661;SDS011;30314;48.184;11.510;2023-08-06T12:53:04;0.90;;;0.20;;
7661;SDS011;30314;48.184;11.510;2023-08-06T12:55:31;0.80;;;0.30;;
7661;SDS011;30314;48.184;11.510;2023-08-06T12:57:59;0.70;;;0.20;;
7661;SDS011;30314;48.184;11.510;2023-08-06T13:00:26;0.93;;;0.30;;
7661;SDS011;30314;48.184;11.510;2023-08-06T13:02:53;1.50;;;0.20;;
7661;SDS011;30314;48.184;11.510;2023-08-06T13:05:20;0.80;;;0.20;;
7661;SDS011;30314;48.184;11.510;2023-08-06T13:07:47;0.70;;;0.20;;
7661;SDS011;30314;48.184;11.510;2023-08-06T13:10:13;0.70;;;0.20;;
7661;SDS011;30314;48.184;11.510;2023-08-06T13:12:40;5.17;;;0.20;;
7661;SDS011;30314;48.184;11.510;2023-08-06T13:15:07;0.70;;;0.20;;
7661;SDS011;30314;48.184;11.510;2023-08-06T13:17:34;0.90;;;0.30;;
7661;SDS011;30314;48.184;11.510;2023-08-06T13:20:00;0.60;;;0.20;;
7661;SDS011;30314;48.184;11.510;2023-08-06T13:22:28;1.73;;;0.30;;
7661;SDS011;30314;48.184;11.510;2023-08-06T13:24:54;0.80;;;0.20;;
7661;SDS011;30314;48.184;11.510;2023-08-06T13:27:21;0.70;;;0.20;;
7661;SDS011;30314;48.184;11.510;2023-08-06T13:29:48;0.90;;;0.20;;
7661;SDS011;30314;48.184;11.510;2023-08-06T13:32:14;1.00;;;0.27;;
7661;SDS011;30314;48.184;11.510;2023-08-06T13:34:41;0.80;;;0.20;;
7661;SDS011;30314;48.184;11.510;2023-08-06T13:37:07;1.70;;;0.40;;
7661;SDS011;30314;48.184;11.510;2023-08-06T13:39:34;0.70;;;0.20;;
7661;SDS011;30314;48.184;11.510;2023-08-06T13:42:01;1.10;;;0.20;;
7661;SDS011;30314;48.184;11.510;2023-08-06T13:44:27;0.70;;;0.30;;
7661;SDS011;30314;48.184;11.510;2023-08-06T13:46:55;0.80;;;0.30;;
7661;SDS011;30314;48.184;11.510;2023-08-06T13:49:22;0.80;;;0.30;;
7661;SDS011;30314;48.184;11.510;2023-08-06T13:51:49;0.70;;;0.20;;
7661;SDS011;30314;48.184;11.510;2023-08-06T13:54:15;0.90;;;0.20;;
7661;SDS011;30314;48.184;11.510;2023-08-06T13:56:43;1.87;;;0.20;;
7661;SDS011;30314;48.184;11.510;2023-08-06T13:59:09;1.03;;;0.30;;
7661;SDS011;30314;48.184;11.510;2023-08-06T14:01:39;0.70;;;0.20;;
7661;SDS011;30314;48.184;11.510;2023-08-06T14:04:17;1.33;;;0.40;;
7661;SDS011;30314;48.184;11.510;2023-08-06T14:06:44;1.67;;;0.30;;
7661;SDS011;30314;48.184;11.510;2023-08-06T14:09:10;0.90;;;0.30;;
7661;SDS011;30314;48.184;11.510;2023-08-06T14:11:40;0.70;;;0.20;;
7661;SDS011;30314;48.184;11.510;2023-08-06T14:14:07;1.53;;;0.30;;
7661;SDS011;30314;48.184;11.510;2023-08-06T14:16:34;1.33;;;0.20;;
7661;SDS011;30314;48.184;11.510;2023-08-06T14:19:02;3.90;;;0.30;;
7661;SDS011;30314;48.184;11.510;2023-08-06T14:21:29;1.03;;;0.23;;
7661;SDS011;30314;48.184;11.510;2023-08-06T14:23:56;1.27;;;0.60;;
7661;SDS011;30314;48.184;11.510;2023-08-06T14:26:22;6.40;;;0.30;;
7661;SDS011;30314;48.184;11.510;2023-08-06T14:28:49;0.70;;;0.20;;
7661;SDS011;30314;48.184;11.510;2023-08-06T14:31:20;0.70;;;0.20;;
7661;SDS011;30314;48.184;11.510;2023-08-06T14:33:47;0.80;;;0.20;;
7661;SDS011;30314;48.184;11.510;2023-08-06T14:36:14;0.70;;;0.20;;
7661;SDS011;30314;48.184;11.510;2023-08-06T14:38:40;1.17;;;0.30;;
7661;SDS011;30314;48.184;11.510;2023-08-06T14:41:23;1.43;;;0.33;;
7661;SDS011;30314;48.184;11.510;2023-08-06T14:43:50;1.60;;;0.30;;
7661;SDS011;30314;48.184;11.510;2023-08-06T14:46:18;1.43;;;0.50;;
7661;SDS011;30314;48.184;11.510;2023-08-06T14:48:44;0.90;;;0.30;;
7661;SDS011;30314;48.184;11.510;2023-08-06T14:51:11;0.83;;;0.30;;
7661;SDS011;30314;48.184;11.510;2023-08-06T14:53:38;0.70;;;0.20;;
7661;SDS011;30314;48.184;11.510;2023-08-06T14:56:05;0.90;;;0.30;;
7661;SDS011;30314;48.184;11.510;2023-08-06T14:58:32;0.80;;;0.20;;
7661;SDS011;30314;48.184;11.510;2023-08-06T15:00:59;1.63;;;0.40;;
7661;SDS011;30314;48.184;11.510;2023-08-06T15:03:25;4.03;;;0.47;;
7661;SDS011;30314;48.184;11.510;2023-08-06T15:05:54;2.90;;;0.40;;
7661;SDS011;30314;48.184;11.510;2023-08-06T15:08:20;2.37;;;0.20;;
7661;SDS011;30314;48.184;11.510;2023-08-06T15:10:51;0.90;;;0.30;;
7661;SDS011;30314;48.184;11.510;2023-08-06T15:13:19;1.20;;;0.30;;